createdAt,value
2022-09-07T00:00:36.542Z,2.47
2022-09-07T00:03:03.904Z,1.55
2022-09-07T00:05:31.323Z,1.67
2022-09-07T00:07:59.021Z,1.75
2022-09-07T00:10:26.773Z,1.23
2022-09-07T00:12:54.331Z,1.55
2022-09-07T00:18:46.512Z,1.42
2022-09-07T00:21:16.277Z,1.50
2022-09-07T00:23:44.010Z,1.33
2022-09-07T00:26:12.690Z,1.38
2022-09-07T00:28:40.274Z,1.70
2022-09-07T00:31:10.505Z,1.27
2022-09-07T00:33:37.843Z,1.85
2022-09-07T00:36:05.239Z,1.50
2022-09-07T00:38:33.860Z,1.83
2022-09-07T00:41:01.297Z,1.92
2022-09-07T00:43:32.920Z,1.50
2022-09-07T00:46:00.357Z,1.63
2022-09-07T00:48:30.004Z,1.27
2022-09-07T00:51:00.700Z,1.17
2022-09-07T00:53:29.189Z,1.60
2022-09-07T00:55:58.566Z,1.27
2022-09-07T00:58:26.129Z,1.90
2022-09-07T01:00:53.378Z,1.27
2022-09-07T01:03:23.314Z,1.58
2022-09-07T01:05:53.025Z,1.50
2022-09-07T01:08:20.513Z,1.38
2022-09-07T01:10:47.802Z,1.60
2022-09-07T01:13:16.791Z,1.40
2022-09-07T01:15:46.334Z,1.40
2022-09-07T01:18:19.644Z,1.33
2022-09-07T01:20:51.315Z,1.33
2022-09-07T01:23:29.510Z,1.38
2022-09-07T01:26:08.379Z,1.52
2022-09-07T01:28:37.067Z,1.20
2022-09-07T01:31:10.279Z,1.45
2022-09-07T01:33:42.896Z,1.30
2022-09-07T01:36:15.562Z,1.23
2022-09-07T01:38:47.223Z,1.75
2022-09-07T01:41:16.278Z,1.30
2022-09-07T01:43:48.163Z,1.83
2022-09-07T01:46:28.799Z,1.50
2022-09-07T01:48:58.351Z,1.50
2022-09-07T01:51:29.349Z,1.60
2022-09-07T01:53:58.402Z,1.30
2022-09-07T01:56:28.503Z,1.60
2022-09-07T02:02:03.580Z,2.03
2022-09-07T02:04:33.171Z,1.65
2022-09-07T02:07:02.551Z,2.00
2022-09-07T02:09:32.827Z,1.70
2022-09-07T02:12:01.491Z,2.00
2022-09-07T02:14:32.117Z,1.50
2022-09-07T02:17:02.844Z,1.80
2022-09-07T02:19:33.300Z,1.70
2022-09-07T02:22:04.006Z,1.85
2022-09-07T02:24:34.396Z,1.60
2022-09-07T02:27:03.631Z,1.90
2022-09-07T02:29:49.175Z,1.60
2022-09-07T02:32:17.851Z,1.90
2022-09-07T02:34:45.211Z,1.88
2022-09-07T02:37:13.154Z,1.93
2022-09-07T02:39:40.426Z,1.60
2022-09-07T02:42:07.886Z,1.47
2022-09-07T02:44:36.852Z,2.08
2022-09-07T02:47:10.377Z,1.80
2022-09-07T02:49:56.410Z,1.77
2022-09-07T02:52:30.076Z,1.60
2022-09-07T02:55:01.197Z,2.33
2022-09-07T02:57:35.914Z,1.70
2022-09-07T03:00:06.234Z,1.70
2022-09-07T03:02:38.814Z,1.70
2022-09-07T03:05:11.218Z,1.67
2022-09-07T03:07:44.139Z,1.88
2022-09-07T03:10:11.994Z,1.92
2022-09-07T03:12:40.249Z,1.70
2022-09-07T03:15:08.300Z,1.52
2022-09-07T03:17:35.547Z,1.60
2022-09-07T03:20:02.901Z,1.87
2022-09-07T03:22:31.634Z,1.40
2022-09-07T03:24:58.920Z,1.67
2022-09-07T03:27:26.143Z,1.80
2022-09-07T03:29:53.422Z,1.80
2022-09-07T03:32:20.655Z,1.63
2022-09-07T03:34:47.919Z,2.23
2022-09-07T03:37:15.247Z,1.70
2022-09-07T03:39:44.596Z,1.53
2022-09-07T03:42:11.963Z,1.90
2022-09-07T03:44:39.331Z,1.20
2022-09-07T03:47:06.787Z,1.60
2022-09-07T03:49:34.053Z,1.90
2022-09-07T03:52:01.334Z,1.73
2022-09-07T03:54:28.910Z,2.10
2022-09-07T03:56:57.556Z,1.87
2022-09-07T03:59:24.894Z,1.60
2022-09-07T04:01:52.201Z,1.57
2022-09-07T04:04:19.478Z,2.07
2022-09-07T04:06:46.725Z,1.60
2022-09-07T04:09:14.825Z,1.90
2022-09-07T04:11:42.335Z,1.83
2022-09-07T04:14:29.705Z,1.97
2022-09-07T04:16:57.041Z,2.60
2022-09-07T04:19:24.331Z,2.27
2022-09-07T04:21:51.588Z,2.00
2022-09-07T04:24:18.973Z,1.63
2022-09-07T04:26:46.279Z,1.60
2022-09-07T04:29:35.147Z,1.60
2022-09-07T04:32:03.936Z,2.13
2022-09-07T04:34:31.594Z,2.20
2022-09-07T04:36:58.824Z,2.00
2022-09-07T04:43:01.349Z,2.60
2022-09-07T04:45:28.566Z,2.50
2022-09-07T04:47:57.120Z,2.70
2022-09-07T04:50:25.003Z,2.87
2022-09-07T04:52:52.268Z,3.00
2022-09-07T04:55:19.478Z,2.83
2022-09-07T04:57:49.235Z,2.83
2022-09-07T05:00:16.785Z,3.37
2022-09-07T05:02:44.279Z,3.10
2022-09-07T05:05:12.951Z,2.63
2022-09-07T05:07:40.184Z,3.73
2022-09-07T05:10:07.686Z,3.13
2022-09-07T05:12:35.071Z,3.67
2022-09-07T05:15:02.309Z,2.90
2022-09-07T05:17:29.583Z,3.00
2022-09-07T05:19:56.787Z,3.40
2022-09-07T05:22:25.366Z,3.30
2022-09-07T05:24:52.582Z,3.70
2022-09-07T05:27:19.866Z,3.40
2022-09-07T05:30:05.183Z,2.90
2022-09-07T05:32:33.475Z,3.27
2022-09-07T05:35:00.886Z,3.57
2022-09-07T05:37:29.471Z,3.43
2022-09-07T05:39:56.875Z,3.20
2022-09-07T05:42:24.257Z,3.70
2022-09-07T05:44:51.554Z,3.43
2022-09-07T05:47:18.795Z,3.13
2022-09-07T05:49:46.085Z,3.27
2022-09-07T05:52:13.331Z,3.70
2022-09-07T05:54:42.006Z,3.10
2022-09-07T05:57:11.360Z,3.03
2022-09-07T05:59:38.835Z,3.17
2022-09-07T06:02:06.623Z,3.63
2022-09-07T06:04:34.042Z,2.95
2022-09-07T06:12:37.098Z,3.60
2022-09-07T06:15:04.764Z,4.20
2022-09-07T06:17:32.163Z,2.67
2022-09-07T06:19:59.426Z,4.00
2022-09-07T06:22:30.212Z,3.40
2022-09-07T06:24:59.916Z,4.03
2022-09-07T06:29:56.446Z,4.30
2022-09-07T06:35:11.299Z,4.23
2022-09-07T06:37:38.558Z,4.50
2022-09-07T06:40:08.661Z,4.70
2022-09-07T06:42:36.019Z,4.00
2022-09-07T06:45:03.956Z,4.67
2022-09-07T06:47:31.529Z,4.43
2022-09-07T06:49:58.775Z,4.70
2022-09-07T06:52:26.024Z,4.37
2022-09-07T06:55:00.902Z,4.30
2022-09-07T06:57:29.899Z,4.00
2022-09-07T06:59:57.182Z,4.80
2022-09-07T07:02:24.575Z,3.20
2022-09-07T07:04:51.888Z,3.33
2022-09-07T07:07:19.127Z,3.50
2022-09-07T07:09:46.394Z,3.00
2022-09-07T07:15:27.080Z,2.50
2022-09-07T07:18:20.776Z,2.73
2022-09-07T07:20:48.885Z,2.70
2022-09-07T07:23:16.191Z,3.47
2022-09-07T07:25:43.390Z,2.75
2022-09-07T07:30:58.746Z,2.63
2022-09-07T07:33:30.007Z,3.95
2022-09-07T07:36:07.251Z,4.75
2022-09-07T07:44:10.091Z,2.40
2022-09-07T07:46:37.378Z,4.20
2022-09-07T07:49:06.408Z,3.45
2022-09-07T07:52:49.973Z,4.47
2022-09-07T07:54:20.894Z,4.65
2022-09-07T07:56:48.087Z,4.60
2022-09-07T07:59:16.008Z,3.78
2022-09-07T08:01:43.498Z,3.40
2022-09-07T08:04:12.190Z,5.93
2022-09-07T08:06:42.504Z,5.30
2022-09-07T08:09:09.778Z,5.68
2022-09-07T08:11:36.990Z,4.90
2022-09-07T08:14:04.431Z,6.32
2022-09-07T08:16:31.688Z,5.72
2022-09-07T08:18:59.038Z,5.45
2022-09-07T08:21:38.257Z,3.90
2022-09-07T08:24:05.895Z,6.13
2022-09-07T08:26:48.426Z,4.78
2022-09-07T08:29:15.759Z,5.15
2022-09-07T08:31:43.031Z,4.95
2022-09-07T08:34:10.279Z,5.38
2022-09-07T08:36:38.872Z,6.00
2022-09-07T08:39:06.088Z,6.03
2022-09-07T08:41:44.868Z,4.15
2022-09-07T08:44:14.347Z,4.55
2022-09-07T08:46:43.288Z,3.83
2022-09-07T08:49:15.838Z,2.97
2022-09-07T08:51:56.021Z,3.25
2022-09-07T08:54:26.439Z,3.22
2022-09-07T08:59:47.032Z,2.95
2022-09-07T09:02:35.131Z,3.17
2022-09-07T09:05:20.119Z,3.13
2022-09-07T09:07:52.400Z,3.80
2022-09-07T09:10:26.287Z,3.25
2022-09-07T09:12:58.946Z,3.97
2022-09-07T09:15:28.361Z,3.53
2022-09-07T09:17:58.723Z,3.05
2022-09-07T09:20:31.281Z,2.63
2022-09-07T09:23:02.638Z,2.90
2022-09-07T09:28:19.288Z,2.55
2022-09-07T09:30:46.897Z,2.63
2022-09-07T09:33:16.107Z,2.20
2022-09-07T09:36:02.439Z,2.78
2022-09-07T09:38:32.628Z,3.55
2022-09-07T09:41:01.182Z,2.22
2022-09-07T09:43:35.889Z,2.03
2022-09-07T09:46:18.605Z,2.60
2022-09-07T09:48:50.372Z,2.40
2022-09-07T09:54:07.798Z,2.63
2022-09-07T09:56:43.791Z,2.90
2022-09-07T10:05:20.464Z,2.10
2022-09-07T10:07:52.549Z,2.55
2022-09-07T10:10:21.715Z,2.67
2022-09-07T10:12:52.967Z,2.80
2022-09-07T10:15:26.347Z,3.13
2022-09-07T10:17:53.831Z,3.00
2022-09-07T10:20:30.726Z,2.13
2022-09-07T10:22:59.150Z,2.50
2022-09-07T10:25:32.307Z,2.88
2022-09-07T10:28:04.648Z,3.33
2022-09-07T10:30:36.779Z,3.13
2022-09-07T10:33:05.447Z,3.25
2022-09-07T10:35:35.979Z,2.47
2022-09-07T10:38:11.671Z,2.38
2022-09-07T10:40:43.078Z,2.78
2022-09-07T10:43:21.125Z,2.53
2022-09-07T10:45:57.580Z,2.88
2022-09-07T10:48:29.967Z,2.47
2022-09-07T10:51:05.127Z,2.63
2022-09-07T10:53:43.208Z,2.40
2022-09-07T10:56:13.400Z,2.35
2022-09-07T10:59:04.712Z,2.45
2022-09-07T11:01:38.430Z,2.22
2022-09-07T11:04:16.283Z,2.72
2022-09-07T11:06:45.795Z,1.67
2022-09-07T11:09:36.462Z,2.78
2022-09-07T11:12:07.554Z,2.38
2022-09-07T11:14:39.332Z,2.83
2022-09-07T11:17:09.234Z,2.03
2022-09-07T11:19:44.740Z,2.78
2022-09-07T11:22:26.743Z,2.05
2022-09-07T11:27:46.510Z,2.97
2022-09-07T11:30:17.667Z,2.03
2022-09-07T11:32:49.115Z,2.25
2022-09-07T11:35:35.144Z,2.42
2022-09-07T11:38:14.419Z,1.85
2022-09-07T11:40:44.375Z,2.03
2022-09-07T11:43:17.647Z,2.20
2022-09-07T11:45:47.308Z,2.75
2022-09-07T11:48:19.535Z,1.90
2022-09-07T11:50:49.127Z,3.45
2022-09-07T11:55:54.874Z,2.00
2022-09-07T11:58:33.658Z,2.97
2022-09-07T12:01:04.677Z,2.58
2022-09-07T12:03:40.289Z,1.70
2022-09-07T12:06:34.179Z,2.35
2022-09-07T12:09:27.694Z,1.90
2022-09-07T12:12:05.850Z,2.63
2022-09-07T12:14:39.706Z,2.38
2022-09-07T12:17:27.978Z,2.58
2022-09-07T12:20:10.663Z,3.10
2022-09-07T12:22:38.239Z,2.28
2022-09-07T12:25:08.606Z,2.03
2022-09-07T12:27:40.000Z,2.45
2022-09-07T12:30:25.673Z,2.33
2022-09-07T12:33:04.173Z,3.30
2022-09-07T12:35:39.350Z,2.47
2022-09-07T12:38:21.513Z,2.67
2022-09-07T12:41:05.404Z,2.60
2022-09-07T12:43:34.926Z,2.58
2022-09-07T12:46:02.553Z,2.58
2022-09-07T12:48:37.111Z,2.65
2022-09-07T12:51:07.415Z,2.80
2022-09-07T12:53:37.455Z,2.80
2022-09-07T12:56:17.355Z,3.22
2022-09-07T12:58:52.117Z,2.75
2022-09-07T13:01:25.023Z,1.70
2022-09-07T13:04:01.684Z,2.40
2022-09-07T13:09:29.779Z,2.85
2022-09-07T13:11:57.314Z,2.47
2022-09-07T13:14:26.233Z,2.17
2022-09-07T13:17:23.967Z,3.03
2022-09-07T13:20:18.171Z,2.40
2022-09-07T13:22:55.318Z,2.05
2022-09-07T13:25:41.307Z,2.72
2022-09-07T13:28:14.909Z,1.73
2022-09-07T13:30:48.609Z,2.45
2022-09-07T13:33:34.740Z,1.77
2022-09-07T13:36:04.682Z,2.42
2022-09-07T13:38:32.468Z,2.55
2022-09-07T13:41:02.925Z,3.80
2022-09-07T13:43:31.347Z,1.92
2022-09-07T13:46:00.212Z,2.30
2022-09-07T13:48:31.526Z,2.67
2022-09-07T13:51:03.611Z,2.20
2022-09-07T13:53:52.127Z,2.50
2022-09-07T13:56:22.384Z,2.60
2022-09-07T13:58:50.923Z,2.42
2022-09-07T14:01:19.694Z,2.70
2022-09-07T14:03:48.239Z,2.25
2022-09-07T14:06:16.563Z,2.75
2022-09-07T14:08:48.058Z,1.63
2022-09-07T14:11:39.680Z,2.10
2022-09-07T14:14:10.783Z,2.10
2022-09-07T14:16:38.530Z,2.25
2022-09-07T14:19:18.243Z,2.97
2022-09-07T14:21:53.875Z,1.73
2022-09-07T14:24:24.393Z,1.92
2022-09-07T14:26:53.349Z,2.28
2022-09-07T14:29:22.509Z,2.30
2022-09-07T14:31:49.879Z,2.35
2022-09-07T14:34:18.328Z,2.15
2022-09-07T14:36:47.511Z,2.67
2022-09-07T14:39:16.090Z,2.80
2022-09-07T14:41:44.057Z,1.92
2022-09-07T14:44:27.305Z,2.67
2022-09-07T14:46:57.379Z,2.20
2022-09-07T14:49:24.983Z,2.00
2022-09-07T14:51:52.820Z,2.60
2022-09-07T14:54:21.016Z,1.98
2022-09-07T14:56:58.688Z,1.85
2022-09-07T14:59:35.431Z,1.70
2022-09-07T15:02:22.591Z,1.90
2022-09-07T15:04:50.860Z,2.00
2022-09-07T15:07:33.197Z,1.88
2022-09-07T15:10:12.900Z,2.05
2022-09-07T15:12:41.982Z,1.92
2022-09-07T15:15:21.845Z,2.70
2022-09-07T15:17:50.625Z,1.88
2022-09-07T15:20:36.449Z,2.20
2022-09-07T15:23:04.214Z,2.33
2022-09-07T15:25:31.875Z,2.15
2022-09-07T15:27:59.163Z,2.80
2022-09-07T15:30:26.465Z,2.63
2022-09-07T15:32:56.893Z,2.15
2022-09-07T15:35:24.634Z,2.40
2022-09-07T15:38:01.429Z,2.33
2022-09-07T15:40:31.244Z,2.45
2022-09-07T15:43:00.288Z,2.40
2022-09-07T15:45:28.092Z,2.60
2022-09-07T15:47:56.709Z,1.67
2022-09-07T15:50:24.326Z,2.00
2022-09-07T15:56:08.538Z,2.40
2022-09-07T15:59:13.029Z,1.88
2022-09-07T16:01:53.152Z,2.40
2022-09-07T16:04:24.127Z,1.35
2022-09-07T16:06:51.596Z,1.83
2022-09-07T16:09:21.745Z,2.58
2022-09-07T16:15:33.377Z,3.20
2022-09-07T16:18:01.809Z,1.98
2022-09-07T16:20:40.315Z,1.85
2022-09-07T16:26:45.992Z,2.20
2022-09-07T16:32:49.184Z,2.65
2022-09-07T16:42:50.595Z,2.17
2022-09-07T16:48:05.367Z,2.20
2022-09-07T16:50:32.637Z,3.03
2022-09-07T16:52:59.861Z,2.47
2022-09-07T16:55:27.103Z,1.98
2022-09-07T17:00:43.182Z,2.20
2022-09-07T17:03:10.489Z,2.42
2022-09-07T17:05:39.187Z,1.80
2022-09-07T17:08:06.718Z,1.73
2022-09-07T17:10:33.942Z,1.88
2022-09-07T17:13:09.451Z,1.70
2022-09-07T17:15:36.811Z,1.30
2022-09-07T17:18:04.042Z,2.28
2022-09-07T17:20:31.347Z,2.67
2022-09-07T17:22:58.809Z,2.22
2022-09-07T17:25:28.019Z,2.17
2022-09-07T17:27:55.262Z,2.10
2022-09-07T17:30:24.710Z,1.80
2022-09-07T17:32:52.369Z,2.00
2022-09-07T17:35:19.884Z,2.10
2022-09-07T17:38:00.871Z,2.03
2022-09-07T17:40:28.618Z,1.85
2022-09-07T17:45:47.673Z,2.22
2022-09-07T17:48:14.965Z,2.15
2022-09-07T17:50:42.574Z,2.55
2022-09-07T17:53:10.028Z,2.47
2022-09-07T17:55:40.771Z,2.28
2022-09-07T17:58:07.993Z,3.08
2022-09-07T18:00:35.350Z,2.53
2022-09-07T18:03:04.044Z,2.58
2022-09-07T18:05:31.290Z,2.53
2022-09-07T18:08:01.741Z,1.70
2022-09-07T18:11:45.153Z,1.80
2022-09-07T18:13:18.075Z,2.55
2022-09-07T18:15:46.113Z,2.45
2022-09-07T18:18:16.152Z,2.35
2022-09-07T18:20:45.113Z,2.40
2022-09-07T18:23:12.521Z,2.42
2022-09-07T18:25:39.738Z,1.83
2022-09-07T18:30:54.351Z,1.30
2022-09-07T18:33:22.886Z,2.10
2022-09-07T18:35:50.168Z,2.40
2022-09-07T18:38:17.358Z,3.72
2022-09-07T18:40:44.539Z,2.42
2022-09-07T18:43:12.532Z,1.92
2022-09-07T18:45:39.800Z,1.98
2022-09-07T18:48:07.026Z,1.55
2022-09-07T18:50:35.733Z,1.52
2022-09-07T18:53:15.902Z,1.60
2022-09-07T18:55:43.818Z,2.25
2022-09-07T18:58:11.016Z,1.80
2022-09-07T19:00:38.289Z,1.70
2022-09-07T19:03:05.600Z,2.15
2022-09-07T19:08:21.310Z,1.52
2022-09-07T19:10:48.761Z,1.90
2022-09-07T19:13:16.155Z,1.73
2022-09-07T19:15:43.364Z,1.80
2022-09-07T19:18:10.596Z,1.80
2022-09-07T19:20:38.163Z,1.60
2022-09-07T19:23:05.790Z,1.92
2022-09-07T19:25:34.364Z,1.70
2022-09-07T19:28:01.711Z,1.80
2022-09-07T19:30:28.943Z,1.85
2022-09-07T19:32:59.596Z,2.70
2022-09-07T19:35:29.360Z,2.50
2022-09-07T19:37:56.602Z,2.40
2022-09-07T19:40:23.867Z,2.00
2022-09-07T19:42:52.439Z,3.33
2022-09-07T19:45:19.691Z,2.92
2022-09-07T19:47:46.910Z,2.75
2022-09-07T19:50:14.206Z,2.40
2022-09-07T19:52:41.506Z,3.67
2022-09-07T19:55:09.238Z,2.28
2022-09-07T19:57:37.265Z,3.25
2022-09-07T20:00:22.977Z,4.47
2022-09-07T20:02:52.305Z,2.42
2022-09-07T20:05:19.558Z,2.47
2022-09-07T20:07:46.811Z,2.22
2022-09-07T20:10:14.009Z,3.38
2022-09-07T20:12:41.231Z,3.75
2022-09-07T20:15:09.084Z,2.90
2022-09-07T20:17:37.458Z,3.35
2022-09-07T20:20:06.439Z,2.67
2022-09-07T20:22:33.650Z,4.13
2022-09-07T20:25:00.844Z,2.60
2022-09-07T20:27:28.223Z,2.67
2022-09-07T20:29:55.383Z,2.08
2022-09-07T20:32:22.636Z,2.75
2022-09-07T20:34:50.051Z,2.60
2022-09-07T20:37:18.579Z,2.58
2022-09-07T20:39:45.867Z,3.00
2022-09-07T20:42:13.072Z,2.22
2022-09-07T20:44:40.299Z,2.22
2022-09-07T20:47:07.647Z,2.60
2022-09-07T20:49:34.906Z,2.60
2022-09-07T20:52:02.227Z,2.53
2022-09-07T20:54:30.734Z,2.58
2022-09-07T20:57:01.047Z,3.25
2022-09-07T20:59:31.041Z,2.58
2022-09-07T21:01:58.237Z,2.38
2022-09-07T21:04:25.569Z,2.28
2022-09-07T21:06:52.774Z,2.67
2022-09-07T21:09:20.202Z,2.37
2022-09-07T21:11:50.710Z,2.67
2022-09-07T21:14:19.474Z,2.50
2022-09-07T21:16:46.763Z,2.88
2022-09-07T21:19:14.018Z,2.40
2022-09-07T21:21:42.719Z,2.93
2022-09-07T21:24:15.074Z,2.50
2022-09-07T21:26:42.294Z,3.00
2022-09-07T21:29:15.525Z,2.57
2022-09-07T21:31:42.759Z,2.60
2022-09-07T21:34:10.003Z,3.13
2022-09-07T21:36:37.210Z,3.05
2022-09-07T21:39:04.462Z,2.63
2022-09-07T21:41:31.695Z,2.08
2022-09-07T21:43:59.574Z,2.60
2022-09-07T21:46:28.662Z,2.60
2022-09-07T21:48:56.526Z,2.63
2022-09-07T21:51:23.879Z,2.13
2022-09-07T21:53:51.963Z,2.70
2022-09-07T21:56:19.154Z,2.50
2022-09-07T21:58:46.358Z,2.63
2022-09-07T22:01:15.111Z,2.50
2022-09-07T22:03:43.850Z,2.13
2022-09-07T22:06:11.335Z,2.87
2022-09-07T22:08:39.955Z,2.40
2022-09-07T22:11:08.135Z,2.27
2022-09-07T22:13:35.736Z,2.17
2022-09-07T22:16:03.410Z,2.27
2022-09-07T22:18:31.148Z,2.73
2022-09-07T22:21:03.830Z,2.80
2022-09-07T22:23:31.199Z,2.00
2022-09-07T22:25:58.401Z,2.07
2022-09-07T22:28:25.655Z,2.40
2022-09-07T22:30:52.847Z,2.23
2022-09-07T22:33:20.139Z,1.83
2022-09-07T22:35:47.350Z,2.33
2022-09-07T22:38:15.987Z,2.93
2022-09-07T22:40:43.157Z,2.00
2022-09-07T22:43:10.406Z,2.13
2022-09-07T22:45:37.606Z,1.70
2022-09-07T22:48:04.931Z,2.13
2022-09-07T22:50:32.756Z,1.73
2022-09-07T22:52:59.975Z,2.00
2022-09-07T22:55:28.516Z,2.43
2022-09-07T22:57:55.884Z,1.97
2022-09-07T23:00:23.075Z,2.33
2022-09-07T23:02:50.302Z,1.87
2022-09-07T23:05:17.479Z,2.47
2022-09-07T23:07:44.746Z,1.80
2022-09-07T23:10:11.915Z,2.63
2022-09-07T23:12:40.435Z,2.43
2022-09-07T23:15:08.007Z,1.97
2022-09-07T23:17:35.252Z,1.93
2022-09-07T23:20:02.691Z,2.50
2022-09-07T23:22:29.879Z,2.00
2022-09-07T23:24:57.352Z,2.10
2022-09-07T23:27:24.523Z,2.47
2022-09-07T23:29:53.066Z,1.80
2022-09-07T23:32:20.279Z,2.38
2022-09-07T23:34:47.480Z,1.80
2022-09-07T23:37:14.727Z,2.20
2022-09-07T23:39:41.987Z,2.40
2022-09-07T23:42:09.218Z,1.97
2022-09-07T23:44:36.472Z,2.10
2022-09-07T23:47:05.054Z,2.00
2022-09-07T23:49:32.286Z,1.83
2022-09-07T23:51:59.479Z,1.80
2022-09-07T23:54:26.717Z,1.90
2022-09-07T23:56:53.892Z,2.13
2022-09-07T23:59:21.255Z,2.10
